sensor_id;sensor_type;location;lat;lon;timestamp;temperature;humidity
71047;SHT31;58703;48.978;8.982;2023-08-20T00:01:22;20.11;99.99
71047;SHT31;58703;48.978;8.982;2023-08-20T00:03:50;20.12;99.99
71047;SHT31;58703;48.978;8.982;2023-08-20T00:06:17;20.11;99.99
71047;SHT31;58703;48.978;8.982;2023-08-20T00:08:42;20.12;99.99
71047;SHT31;58703;48.978;8.982;2023-08-20T00:11:08;20.15;99.99
71047;SHT31;58703;48.978;8.982;2023-08-20T00:13:35;20.21;99.99
71047;SHT31;58703;48.978;8.982;2023-08-20T00:16:00;20.22;99.99
71047;SHT31;58703;48.978;8.982;2023-08-20T00:18:27;20.25;99.99
71047;SHT31;58703;48.978;8.982;2023-08-20T00:20:53;20.18;99.99
71047;SHT31;58703;48.978;8.982;2023-08-20T00:23:19;20.15;99.99
71047;SHT31;58703;48.978;8.982;2023-08-20T00:25:45;20.17;99.99
71047;SHT31;58703;48.978;8.982;2023-08-20T00:28:10;20.18;99.99
71047;SHT31;58703;48.978;8.982;2023-08-20T00:30:36;20.17;99.99
71047;SHT31;58703;48.978;8.982;2023-08-20T00:33:02;20.14;99.99
71047;SHT31;58703;48.978;8.982;2023-08-20T00:35:27;20.19;99.99
71047;SHT31;58703;48.978;8.982;2023-08-20T00:37:53;20.24;99.99
71047;SHT31;58703;48.978;8.982;2023-08-20T00:40:19;20.26;99.99
71047;SHT31;58703;48.978;8.982;2023-08-20T00:42:44;20.29;99.99
71047;SHT31;58703;48.978;8.982;2023-08-20T00:45:10;20.25;99.99
71047;SHT31;58703;48.978;8.982;2023-08-20T00:47:36;20.25;99.99
71047;SHT31;58703;48.978;8.982;2023-08-20T00:50:03;20.17;99.99
71047;SHT31;58703;48.978;8.982;2023-08-20T00:52:34;20.05;99.99
71047;SHT31;58703;48.978;8.982;2023-08-20T00:55:07;19.95;99.99
71047;SHT31;58703;48.978;8.982;2023-08-20T00:57:32;19.91;99.99
71047;SHT31;58703;48.978;8.982;2023-08-20T00:59:58;19.87;99.99
71047;SHT31;58703;48.978;8.982;2023-08-20T01:02:24;19.90;99.99
71047;SHT31;58703;48.978;8.982;2023-08-20T01:04:50;19.91;99.99
71047;SHT31;58703;48.978;8.982;2023-08-20T01:12:43;19.85;99.99
71047;SHT31;58703;48.978;8.982;2023-08-20T01:15:09;19.80;99.99
71047;SHT31;58703;48.978;8.982;2023-08-20T01:17:40;19.77;99.99
71047;SHT31;58703;48.978;8.982;2023-08-20T01:20:08;19.78;99.99
71047;SHT31;58703;48.978;8.982;2023-08-20T01:28:26;19.74;99.99
71047;SHT31;58703;48.978;8.982;2023-08-20T01:30:57;19.74;99.99
71047;SHT31;58703;48.978;8.982;2023-08-20T01:33:22;19.71;99.99
71047;SHT31;58703;48.978;8.982;2023-08-20T01:35:50;19.68;99.99
71047;SHT31;58703;48.978;8.982;2023-08-20T01:38:16;19.61;99.99
71047;SHT31;58703;48.978;8.982;2023-08-20T01:40:42;19.56;99.99
71047;SHT31;58703;48.978;8.982;2023-08-20T01:43:07;19.56;99.99
71047;SHT31;58703;48.978;8.982;2023-08-20T01:45:33;19.51;99.99
71047;SHT31;58703;48.978;8.982;2023-08-20T01:47:59;19.47;99.99
71047;SHT31;58703;48.978;8.982;2023-08-20T01:50:24;19.46;99.99
71047;SHT31;58703;48.978;8.982;2023-08-20T01:52:50;19.40;99.99
71047;SHT31;58703;48.978;8.982;2023-08-20T01:55:16;19.45;99.99
71047;SHT31;58703;48.978;8.982;2023-08-20T01:57:41;19.47;99.99
71047;SHT31;58703;48.978;8.982;2023-08-20T02:00:07;19.49;99.99
71047;SHT31;58703;48.978;8.982;2023-08-20T02:02:33;19.56;99.99
71047;SHT31;58703;48.978;8.982;2023-08-20T02:05:00;19.58;99.99
71047;SHT31;58703;48.978;8.982;2023-08-20T02:07:25;19.68;99.99
71047;SHT31;58703;48.978;8.982;2023-08-20T02:09:51;19.71;99.99
71047;SHT31;58703;48.978;8.982;2023-08-20T02:12:17;19.70;99.99
71047;SHT31;58703;48.978;8.982;2023-08-20T02:14:43;19.71;99.99
71047;SHT31;58703;48.978;8.982;2023-08-20T02:17:08;19.66;99.99
71047;SHT31;58703;48.978;8.982;2023-08-20T02:19:34;19.60;99.99
71047;SHT31;58703;48.978;8.982;2023-08-20T02:21:59;19.56;99.99
71047;SHT31;58703;48.978;8.982;2023-08-20T02:24:25;19.47;99.99
71047;SHT31;58703;48.978;8.982;2023-08-20T02:26:50;19.41;99.99
71047;SHT31;58703;48.978;8.982;2023-08-20T02:29:16;19.34;99.99
71047;SHT31;58703;48.978;8.982;2023-08-20T02:31:42;19.27;99.99
71047;SHT31;58703;48.978;8.982;2023-08-20T02:34:07;19.23;99.99
71047;SHT31;58703;48.978;8.982;2023-08-20T02:36:33;19.19;99.99
71047;SHT31;58703;48.978;8.982;2023-08-20T02:38:59;19.20;99.99
71047;SHT31;58703;48.978;8.982;2023-08-20T02:41:25;19.15;99.99
71047;SHT31;58703;48.978;8.982;2023-08-20T02:43:50;19.09;99.99
71047;SHT31;58703;48.978;8.982;2023-08-20T02:46:16;19.05;99.99
71047;SHT31;58703;48.978;8.982;2023-08-20T02:48:41;19.05;99.99
71047;SHT31;58703;48.978;8.982;2023-08-20T02:51:07;18.95;99.99
71047;SHT31;58703;48.978;8.982;2023-08-20T02:53:32;18.89;99.99
71047;SHT31;58703;48.978;8.982;2023-08-20T02:55:59;18.94;99.99
71047;SHT31;58703;48.978;8.982;2023-08-20T02:58:25;18.88;99.99
71047;SHT31;58703;48.978;8.982;2023-08-20T03:00:50;18.76;99.99
71047;SHT31;58703;48.978;8.982;2023-08-20T03:03:16;18.71;99.99
71047;SHT31;58703;48.978;8.982;2023-08-20T03:05:41;18.73;99.99
71047;SHT31;58703;48.978;8.982;2023-08-20T03:08:07;18.69;99.99
71047;SHT31;58703;48.978;8.982;2023-08-20T03:10:34;18.61;99.99
71047;SHT31;58703;48.978;8.982;2023-08-20T03:13:01;18.65;99.99
71047;SHT31;58703;48.978;8.982;2023-08-20T03:15:28;18.66;99.99
71047;SHT31;58703;48.978;8.982;2023-08-20T03:17:53;18.72;99.99
71047;SHT31;58703;48.978;8.982;2023-08-20T03:20:19;18.82;99.99
71047;SHT31;58703;48.978;8.982;2023-08-20T03:22:44;18.88;99.99
71047;SHT31;58703;48.978;8.982;2023-08-20T03:25:10;18.82;99.99
71047;SHT31;58703;48.978;8.982;2023-08-20T03:27:35;18.71;99.99
71047;SHT31;58703;48.978;8.982;2023-08-20T03:30:01;18.58;99.99
71047;SHT31;58703;48.978;8.982;2023-08-20T03:32:27;18.49;99.99
71047;SHT31;58703;48.978;8.982;2023-08-20T03:34:53;18.49;99.99
71047;SHT31;58703;48.978;8.982;2023-08-20T03:37:19;18.48;99.99
71047;SHT31;58703;48.978;8.982;2023-08-20T03:39:45;18.43;99.99
71047;SHT31;58703;48.978;8.982;2023-08-20T03:42:11;18.34;99.99
71047;SHT31;58703;48.978;8.982;2023-08-20T03:44:37;18.30;99.99
71047;SHT31;58703;48.978;8.982;2023-08-20T03:47:02;18.21;99.99
71047;SHT31;58703;48.978;8.982;2023-08-20T03:49:28;18.27;99.99
71047;SHT31;58703;48.978;8.982;2023-08-20T03:51:53;18.24;99.99
71047;SHT31;58703;48.978;8.982;2023-08-20T03:54:19;18.20;99.99
71047;SHT31;58703;48.978;8.982;2023-08-20T03:56:45;18.18;99.99
71047;SHT31;58703;48.978;8.982;2023-08-20T03:59:10;18.17;99.99
71047;SHT31;58703;48.978;8.982;2023-08-20T04:01:37;18.31;99.99
71047;SHT31;58703;48.978;8.982;2023-08-20T04:04:03;18.48;99.99
71047;SHT31;58703;48.978;8.982;2023-08-20T04:06:29;18.41;99.99
71047;SHT31;58703;48.978;8.982;2023-08-20T04:08:54;18.28;99.99
71047;SHT31;58703;48.978;8.982;2023-08-20T04:11:20;18.21;99.99
71047;SHT31;58703;48.978;8.982;2023-08-20T04:13:46;18.23;99.99
71047;SHT31;58703;48.978;8.982;2023-08-20T04:16:13;18.24;99.99
71047;SHT31;58703;48.978;8.982;2023-08-20T04:18:39;18.18;99.99
71047;SHT31;58703;48.978;8.982;2023-08-20T04:21:04;18.10;99.99
71047;SHT31;58703;48.978;8.982;2023-08-20T04:23:30;18.14;99.99
71047;SHT31;58703;48.978;8.982;2023-08-20T04:25:56;18.15;99.99
71047;SHT31;58703;48.978;8.982;2023-08-20T04:28:21;18.13;99.99
71047;SHT31;58703;48.978;8.982;2023-08-20T04:30:47;18.08;99.99
71047;SHT31;58703;48.978;8.982;2023-08-20T04:33:15;18.05;99.99
71047;SHT31;58703;48.978;8.982;2023-08-20T04:35:40;18.08;99.99
71047;SHT31;58703;48.978;8.982;2023-08-20T04:38:06;18.10;99.99
71047;SHT31;58703;48.978;8.982;2023-08-20T04:40:33;18.18;99.99
71047;SHT31;58703;48.978;8.982;2023-08-20T04:42:58;18.14;99.99
71047;SHT31;58703;48.978;8.982;2023-08-20T04:45:24;18.08;99.99
71047;SHT31;58703;48.978;8.982;2023-08-20T04:47:50;18.05;99.99
71047;SHT31;58703;48.978;8.982;2023-08-20T04:50:15;18.05;99.99
71047;SHT31;58703;48.978;8.982;2023-08-20T04:52:41;18.21;99.99
71047;SHT31;58703;48.978;8.982;2023-08-20T04:55:06;18.35;99.99
71047;SHT31;58703;48.978;8.982;2023-08-20T04:57:33;18.37;99.99
71047;SHT31;58703;48.978;8.982;2023-08-20T04:59:59;18.48;99.99
71047;SHT31;58703;48.978;8.982;2023-08-20T05:02:24;18.52;99.99
71047;SHT31;58703;48.978;8.982;2023-08-20T05:04:50;18.54;99.99
71047;SHT31;58703;48.978;8.982;2023-08-20T05:07:16;18.58;99.99
71047;SHT31;58703;48.978;8.982;2023-08-20T05:09:41;18.61;99.99
71047;SHT31;58703;48.978;8.982;2023-08-20T05:12:07;18.96;99.99
71047;SHT31;58703;48.978;8.982;2023-08-20T05:14:33;19.26;99.99
71047;SHT31;58703;48.978;8.982;2023-08-20T05:16:58;19.40;99.99
71047;SHT31;58703;48.978;8.982;2023-08-20T05:19:24;19.50;99.99
71047;SHT31;58703;48.978;8.982;2023-08-20T05:21:50;19.61;99.99
71047;SHT31;58703;48.978;8.982;2023-08-20T05:24:15;19.78;99.99
71047;SHT31;58703;48.978;8.982;2023-08-20T05:26:41;19.84;99.99
71047;SHT31;58703;48.978;8.982;2023-08-20T05:29:06;19.88;99.99
71047;SHT31;58703;48.978;8.982;2023-08-20T05:31:33;20.11;99.99
71047;SHT31;58703;48.978;8.982;2023-08-20T05:33:59;20.11;99.24
71047;SHT31;58703;48.978;8.982;2023-08-20T05:36:24;20.19;99.00
71047;SHT31;58703;48.978;8.982;2023-08-20T05:38:50;20.33;98.58
71047;SHT31;58703;48.978;8.982;2023-08-20T05:41:15;20.65;97.76
71047;SHT31;58703;48.978;8.982;2023-08-20T05:43:41;20.96;97.90
71047;SHT31;58703;48.978;8.982;2023-08-20T05:46:07;21.13;97.27
71047;SHT31;58703;48.978;8.982;2023-08-20T05:48:32;21.50;96.02
71047;SHT31;58703;48.978;8.982;2023-08-20T05:50:58;21.54;94.94
71047;SHT31;58703;48.978;8.982;2023-08-20T05:53:23;21.34;95.23
71047;SHT31;58703;48.978;8.982;2023-08-20T05:55:49;21.24;96.61
71047;SHT31;58703;48.978;8.982;2023-08-20T05:58:15;21.50;95.32
71047;SHT31;58703;48.978;8.982;2023-08-20T06:00:40;21.77;95.39
71047;SHT31;58703;48.978;8.982;2023-08-20T06:03:06;21.73;95.13
71047;SHT31;58703;48.978;8.982;2023-08-20T06:05:36;21.66;94.79
71047;SHT31;58703;48.978;8.982;2023-08-20T06:08:01;21.92;94.41
71047;SHT31;58703;48.978;8.982;2023-08-20T06:10:27;21.73;94.80
71047;SHT31;58703;48.978;8.982;2023-08-20T06:12:53;22.16;93.67
71047;SHT31;58703;48.978;8.982;2023-08-20T06:15:19;22.64;92.08
71047;SHT31;58703;48.978;8.982;2023-08-20T06:17:44;22.97;91.01
71047;SHT31;58703;48.978;8.982;2023-08-20T06:20:10;22.69;91.48
71047;SHT31;58703;48.978;8.982;2023-08-20T06:22:37;22.86;91.99
71047;SHT31;58703;48.978;8.982;2023-08-20T06:25:04;23.41;90.05
71047;SHT31;58703;48.978;8.982;2023-08-20T06:27:30;23.54;88.89
71047;SHT31;58703;48.978;8.982;2023-08-20T06:29:55;23.48;89.04
71047;SHT31;58703;48.978;8.982;2023-08-20T06:32:21;23.49;89.48
71047;SHT31;58703;48.978;8.982;2023-08-20T06:34:47;23.71;89.29
71047;SHT31;58703;48.978;8.982;2023-08-20T06:37:12;24.02;87.28
71047;SHT31;58703;48.978;8.982;2023-08-20T06:39:38;24.37;86.06
71047;SHT31;58703;48.978;8.982;2023-08-20T06:42:03;24.71;84.85
71047;SHT31;58703;48.978;8.982;2023-08-20T06:44:29;25.05;84.19
71047;SHT31;58703;48.978;8.982;2023-08-20T06:46:55;25.32;83.43
71047;SHT31;58703;48.978;8.982;2023-08-20T06:49:20;25.93;81.55
71047;SHT31;58703;48.978;8.982;2023-08-20T06:51:46;25.85;82.84
71047;SHT31;58703;48.978;8.982;2023-08-20T06:54:11;25.46;83.02
71047;SHT31;58703;48.978;8.982;2023-08-20T06:56:37;26.21;80.88
71047;SHT31;58703;48.978;8.982;2023-08-20T06:59:02;26.07;80.53
71047;SHT31;58703;48.978;8.982;2023-08-20T07:01:28;25.24;83.76
71047;SHT31;58703;48.978;8.982;2023-08-20T07:03:54;24.94;84.67
71047;SHT31;58703;48.978;8.982;2023-08-20T07:06:20;24.71;84.86
71047;SHT31;58703;48.978;8.982;2023-08-20T07:08:45;25.56;83.80
71047;SHT31;58703;48.978;8.982;2023-08-20T07:11:11;26.06;81.96
71047;SHT31;58703;48.978;8.982;2023-08-20T07:13:37;26.64;81.41
71047;SHT31;58703;48.978;8.982;2023-08-20T07:16:02;27.09;79.44
71047;SHT31;58703;48.978;8.982;2023-08-20T07:18:28;27.18;79.00
71047;SHT31;58703;48.978;8.982;2023-08-20T07:20:54;26.33;81.81
71047;SHT31;58703;48.978;8.982;2023-08-20T07:23:21;25.70;83.36
71047;SHT31;58703;48.978;8.982;2023-08-20T07:25:48;25.11;85.46
71047;SHT31;58703;48.978;8.982;2023-08-20T07:28:17;25.47;85.01
71047;SHT31;58703;48.978;8.982;2023-08-20T07:30:52;25.93;83.45
71047;SHT31;58703;48.978;8.982;2023-08-20T07:33:17;26.52;81.49
71047;SHT31;58703;48.978;8.982;2023-08-20T07:35:43;26.81;80.16
71047;SHT31;58703;48.978;8.982;2023-08-20T07:38:08;26.81;80.60
71047;SHT31;58703;48.978;8.982;2023-08-20T07:40:34;27.56;79.69
71047;SHT31;58703;48.978;8.982;2023-08-20T07:42:59;28.13;77.30
71047;SHT31;58703;48.978;8.982;2023-08-20T07:45:25;28.58;74.88
71047;SHT31;58703;48.978;8.982;2023-08-20T07:47:50;28.62;75.26
71047;SHT31;58703;48.978;8.982;2023-08-20T07:50:16;28.55;75.73
71047;SHT31;58703;48.978;8.982;2023-08-20T07:52:42;28.31;76.33
71047;SHT31;58703;48.978;8.982;2023-08-20T07:55:08;28.37;75.63
71047;SHT31;58703;48.978;8.982;2023-08-20T07:57:33;27.97;77.31
71047;SHT31;58703;48.978;8.982;2023-08-20T07:59:59;28.27;76.54
71047;SHT31;58703;48.978;8.982;2023-08-20T08:02:24;28.73;75.03
71047;SHT31;58703;48.978;8.982;2023-08-20T08:04:50;29.43;73.94
71047;SHT31;58703;48.978;8.982;2023-08-20T08:07:15;29.09;73.52
71047;SHT31;58703;48.978;8.982;2023-08-20T08:09:41;29.23;72.35
71047;SHT31;58703;48.978;8.982;2023-08-20T08:12:06;29.38;73.41
71047;SHT31;58703;48.978;8.982;2023-08-20T08:14:32;29.13;72.96
71047;SHT31;58703;48.978;8.982;2023-08-20T08:16:57;29.05;73.41
71047;SHT31;58703;48.978;8.982;2023-08-20T08:19:23;29.00;74.01
71047;SHT31;58703;48.978;8.982;2023-08-20T08:21:49;28.96;73.41
71047;SHT31;58703;48.978;8.982;2023-08-20T08:24:15;28.41;74.87
71047;SHT31;58703;48.978;8.982;2023-08-20T08:26:40;29.30;72.97
71047;SHT31;58703;48.978;8.982;2023-08-20T08:29:07;29.76;71.52
71047;SHT31;58703;48.978;8.982;2023-08-20T08:31:34;29.98;71.62
71047;SHT31;58703;48.978;8.982;2023-08-20T08:33:59;30.52;70.85
71047;SHT31;58703;48.978;8.982;2023-08-20T08:36:25;30.27;70.01
71047;SHT31;58703;48.978;8.982;2023-08-20T08:38:52;29.92;71.51
71047;SHT31;58703;48.978;8.982;2023-08-20T08:41:21;29.74;72.27
71047;SHT31;58703;48.978;8.982;2023-08-20T08:43:47;30.60;70.34
71047;SHT31;58703;48.978;8.982;2023-08-20T08:46:13;30.33;70.70
71047;SHT31;58703;48.978;8.982;2023-08-20T08:48:43;30.58;70.41
71047;SHT31;58703;48.978;8.982;2023-08-20T08:51:09;29.42;72.32
71047;SHT31;58703;48.978;8.982;2023-08-20T08:53:35;29.66;72.57
71047;SHT31;58703;48.978;8.982;2023-08-20T08:56:01;30.27;70.53
71047;SHT31;58703;48.978;8.982;2023-08-20T08:58:28;30.65;69.15
71047;SHT31;58703;48.978;8.982;2023-08-20T09:00:54;30.83;69.29
71047;SHT31;58703;48.978;8.982;2023-08-20T09:03:19;31.20;68.27
71047;SHT31;58703;48.978;8.982;2023-08-20T09:05:49;31.82;65.97
71047;SHT31;58703;48.978;8.982;2023-08-20T09:08:28;30.87;67.52
71047;SHT31;58703;48.978;8.982;2023-08-20T09:10:56;30.82;69.04
71047;SHT31;58703;48.978;8.982;2023-08-20T09:13:47;31.61;66.82
71047;SHT31;58703;48.978;8.982;2023-08-20T09:16:12;30.72;68.98
71047;SHT31;58703;48.978;8.982;2023-08-20T09:18:38;29.71;70.93
71047;SHT31;58703;48.978;8.982;2023-08-20T09:21:09;29.80;71.35
71047;SHT31;58703;48.978;8.982;2023-08-20T09:23:35;30.22;70.17
71047;SHT31;58703;48.978;8.982;2023-08-20T09:26:02;30.15;70.59
71047;SHT31;58703;48.978;8.982;2023-08-20T09:28:28;29.66;71.50
71047;SHT31;58703;48.978;8.982;2023-08-20T09:30:58;30.01;71.16
71047;SHT31;58703;48.978;8.982;2023-08-20T09:33:24;30.38;70.47
71047;SHT31;58703;48.978;8.982;2023-08-20T09:35:50;30.35;69.33
71047;SHT31;58703;48.978;8.982;2023-08-20T09:38:19;31.06;68.14
71047;SHT31;58703;48.978;8.982;2023-08-20T09:40:53;31.38;66.78
71047;SHT31;58703;48.978;8.982;2023-08-20T09:43:23;29.87;70.43
71047;SHT31;58703;48.978;8.982;2023-08-20T09:45:52;29.89;70.93
71047;SHT31;58703;48.978;8.982;2023-08-20T09:48:20;31.29;68.64
71047;SHT31;58703;48.978;8.982;2023-08-20T09:50:51;32.32;65.76
71047;SHT31;58703;48.978;8.982;2023-08-20T09:53:25;32.39;65.12
71047;SHT31;58703;48.978;8.982;2023-08-20T09:55:51;33.27;61.92
71047;SHT31;58703;48.978;8.982;2023-08-20T09:58:20;33.02;61.63
71047;SHT31;58703;48.978;8.982;2023-08-20T10:00:51;32.67;63.45
71047;SHT31;58703;48.978;8.982;2023-08-20T10:03:18;32.62;63.03
71047;SHT31;58703;48.978;8.982;2023-08-20T10:05:49;31.34;65.70
71047;SHT31;58703;48.978;8.982;2023-08-20T10:08:15;32.16;63.11
71047;SHT31;58703;48.978;8.982;2023-08-20T10:10:41;33.23;61.72
71047;SHT31;58703;48.978;8.982;2023-08-20T10:13:07;33.23;62.49
71047;SHT31;58703;48.978;8.982;2023-08-20T10:15:33;33.55;61.36
71047;SHT31;58703;48.978;8.982;2023-08-20T10:18:02;34.08;60.46
71047;SHT31;58703;48.978;8.982;2023-08-20T10:20:31;34.50;57.64
71047;SHT31;58703;48.978;8.982;2023-08-20T10:23:01;34.09;57.30
71047;SHT31;58703;48.978;8.982;2023-08-20T10:25:29;33.92;58.61
71047;SHT31;58703;48.978;8.982;2023-08-20T10:28:20;34.32;59.02
71047;SHT31;58703;48.978;8.982;2023-08-20T10:31:08;34.35;55.94
71047;SHT31;58703;48.978;8.982;2023-08-20T10:33:36;35.10;55.86
71047;SHT31;58703;48.978;8.982;2023-08-20T10:36:19;34.77;56.41
71047;SHT31;58703;48.978;8.982;2023-08-20T10:38:51;34.77;55.36
71047;SHT31;58703;48.978;8.982;2023-08-20T10:41:28;34.42;55.80
71047;SHT31;58703;48.978;8.982;2023-08-20T10:43:57;34.02;55.26
71047;SHT31;58703;48.978;8.982;2023-08-20T10:46:24;33.79;55.97
71047;SHT31;58703;48.978;8.982;2023-08-20T10:49:01;33.06;57.45
71047;SHT31;58703;48.978;8.982;2023-08-20T10:51:36;34.37;56.10
71047;SHT31;58703;48.978;8.982;2023-08-20T10:54:05;34.33;54.48
71047;SHT31;58703;48.978;8.982;2023-08-20T10:56:48;35.64;54.28
71047;SHT31;58703;48.978;8.982;2023-08-20T10:59:21;34.88;54.69
71047;SHT31;58703;48.978;8.982;2023-08-20T11:01:49;33.54;56.06
71047;SHT31;58703;48.978;8.982;2023-08-20T11:04:16;33.58;56.39
71047;SHT31;58703;48.978;8.982;2023-08-20T11:06:43;33.82;54.55
71047;SHT31;58703;48.978;8.982;2023-08-20T11:09:09;33.98;55.75
71047;SHT31;58703;48.978;8.982;2023-08-20T11:11:38;35.39;54.56
71047;SHT31;58703;48.978;8.982;2023-08-20T11:14:12;34.52;53.91
71047;SHT31;58703;48.978;8.982;2023-08-20T11:16:45;33.65;54.98
71047;SHT31;58703;48.978;8.982;2023-08-20T11:19:11;34.19;54.82
71047;SHT31;58703;48.978;8.982;2023-08-20T11:21:40;34.31;53.94
71047;SHT31;58703;48.978;8.982;2023-08-20T11:24:07;34.36;53.00
71047;SHT31;58703;48.978;8.982;2023-08-20T11:26:33;34.70;52.49
71047;SHT31;58703;48.978;8.982;2023-08-20T11:29:09;33.76;53.32
71047;SHT31;58703;48.978;8.982;2023-08-20T11:31:36;35.07;51.11
71047;SHT31;58703;48.978;8.982;2023-08-20T11:34:03;35.14;51.75
71047;SHT31;58703;48.978;8.982;2023-08-20T11:36:28;35.79;50.51
71047;SHT31;58703;48.978;8.982;2023-08-20T11:38:54;35.03;52.33
71047;SHT31;58703;48.978;8.982;2023-08-20T11:41:24;35.26;51.52
71047;SHT31;58703;48.978;8.982;2023-08-20T11:43:51;35.24;51.12
71047;SHT31;58703;48.978;8.982;2023-08-20T11:46:22;35.64;49.41
71047;SHT31;58703;48.978;8.982;2023-08-20T11:49:04;35.48;48.74
71047;SHT31;58703;48.978;8.982;2023-08-20T11:54:05;35.15;48.58
71047;SHT31;58703;48.978;8.982;2023-08-20T11:56:32;35.64;49.38
71047;SHT31;58703;48.978;8.982;2023-08-20T11:59:02;36.98;48.10
71047;SHT31;58703;48.978;8.982;2023-08-20T12:01:31;36.98;47.32
71047;SHT31;58703;48.978;8.982;2023-08-20T12:04:04;35.92;49.34
71047;SHT31;58703;48.978;8.982;2023-08-20T12:06:30;35.98;49.25
71047;SHT31;58703;48.978;8.982;2023-08-20T12:08:57;37.41;47.45
71047;SHT31;58703;48.978;8.982;2023-08-20T12:11:24;37.57;47.10
71047;SHT31;58703;48.978;8.982;2023-08-20T12:13:50;37.31;46.39
71047;SHT31;58703;48.978;8.982;2023-08-20T12:16:16;35.96;48.60
71047;SHT31;58703;48.978;8.982;2023-08-20T12:18:41;35.55;49.91
71047;SHT31;58703;48.978;8.982;2023-08-20T12:21:07;36.03;49.91
71047;SHT31;58703;48.978;8.982;2023-08-20T12:23:32;35.57;50.56
71047;SHT31;58703;48.978;8.982;2023-08-20T12:25:58;35.84;49.94
71047;SHT31;58703;48.978;8.982;2023-08-20T12:28:24;36.10;49.04
71047;SHT31;58703;48.978;8.982;2023-08-20T12:30:51;36.39;49.60
71047;SHT31;58703;48.978;8.982;2023-08-20T12:33:17;37.37;48.53
71047;SHT31;58703;48.978;8.982;2023-08-20T12:35:42;37.02;48.08
71047;SHT31;58703;48.978;8.982;2023-08-20T12:38:08;37.08;47.83
71047;SHT31;58703;48.978;8.982;2023-08-20T12:40:34;38.01;46.51
71047;SHT31;58703;48.978;8.982;2023-08-20T12:42:59;39.07;45.27
71047;SHT31;58703;48.978;8.982;2023-08-20T12:45:25;39.75;43.60
71047;SHT31;58703;48.978;8.982;2023-08-20T12:47:50;40.15;43.83
71047;SHT31;58703;48.978;8.982;2023-08-20T12:50:16;39.56;45.62
71047;SHT31;58703;48.978;8.982;2023-08-20T12:52:42;37.60;47.32
71047;SHT31;58703;48.978;8.982;2023-08-20T12:55:08;37.69;46.51
71047;SHT31;58703;48.978;8.982;2023-08-20T12:57:34;37.72;46.54
71047;SHT31;58703;48.978;8.982;2023-08-20T13:00:01;37.41;47.79
71047;SHT31;58703;48.978;8.982;2023-08-20T13:02:27;37.04;48.16
71047;SHT31;58703;48.978;8.982;2023-08-20T13:04:53;36.46;49.52
71047;SHT31;58703;48.978;8.982;2023-08-20T13:07:19;37.28;47.94
71047;SHT31;58703;48.978;8.982;2023-08-20T13:09:44;36.71;48.75
71047;SHT31;58703;48.978;8.982;2023-08-20T13:12:10;35.99;49.13
71047;SHT31;58703;48.978;8.982;2023-08-20T13:14:40;36.95;47.41
71047;SHT31;58703;48.978;8.982;2023-08-20T13:17:07;38.34;46.33
71047;SHT31;58703;48.978;8.982;2023-08-20T13:19:33;38.74;45.14
71047;SHT31;58703;48.978;8.982;2023-08-20T13:21:59;39.70;43.26
71047;SHT31;58703;48.978;8.982;2023-08-20T13:24:24;38.12;44.78
71047;SHT31;58703;48.978;8.982;2023-08-20T13:26:51;37.79;45.74
71047;SHT31;58703;48.978;8.982;2023-08-20T13:29:16;37.14;45.76
71047;SHT31;58703;48.978;8.982;2023-08-20T13:31:42;36.69;46.55
71047;SHT31;58703;48.978;8.982;2023-08-20T13:34:07;37.22;45.86
71047;SHT31;58703;48.978;8.982;2023-08-20T13:36:33;37.95;45.77
71047;SHT31;58703;48.978;8.982;2023-08-20T13:38:58;38.74;43.82
71047;SHT31;58703;48.978;8.982;2023-08-20T13:41:24;37.89;45.07
71047;SHT31;58703;48.978;8.982;2023-08-20T13:43:50;38.91;43.35
71047;SHT31;58703;48.978;8.982;2023-08-20T13:46:15;40.26;41.49
71047;SHT31;58703;48.978;8.982;2023-08-20T13:48:41;41.27;39.99
71047;SHT31;58703;48.978;8.982;2023-08-20T13:51:06;40.50;41.36
71047;SHT31;58703;48.978;8.982;2023-08-20T13:53:32;40.23;41.37
71047;SHT31;58703;48.978;8.982;2023-08-20T13:55:58;40.48;40.89
71047;SHT31;58703;48.978;8.982;2023-08-20T13:58:23;39.82;41.97
71047;SHT31;58703;48.978;8.982;2023-08-20T14:00:49;40.12;41.17
71047;SHT31;58703;48.978;8.982;2023-08-20T14:03:14;39.62;41.38
71047;SHT31;58703;48.978;8.982;2023-08-20T14:05:40;39.35;41.54
71047;SHT31;58703;48.978;8.982;2023-08-20T14:08:05;41.07;40.15
71047;SHT31;58703;48.978;8.982;2023-08-20T14:10:31;42.09;39.09
71047;SHT31;58703;48.978;8.982;2023-08-20T14:12:56;41.27;39.87
71047;SHT31;58703;48.978;8.982;2023-08-20T14:15:22;39.75;42.37
71047;SHT31;58703;48.978;8.982;2023-08-20T14:17:48;40.09;41.47
71047;SHT31;58703;48.978;8.982;2023-08-20T14:20:13;39.15;43.09
71047;SHT31;58703;48.978;8.982;2023-08-20T14:22:39;39.89;42.78
71047;SHT31;58703;48.978;8.982;2023-08-20T14:25:05;38.93;41.93
71047;SHT31;58703;48.978;8.982;2023-08-20T14:27:31;40.76;40.21
71047;SHT31;58703;48.978;8.982;2023-08-20T14:29:56;38.97;42.52
71047;SHT31;58703;48.978;8.982;2023-08-20T14:32:22;38.59;41.97
71047;SHT31;58703;48.978;8.982;2023-08-20T14:34:47;39.17;42.37
71047;SHT31;58703;48.978;8.982;2023-08-20T14:37:13;38.81;42.53
71047;SHT31;58703;48.978;8.982;2023-08-20T14:39:39;39.05;40.88
71047;SHT31;58703;48.978;8.982;2023-08-20T14:42:05;39.78;39.44
71047;SHT31;58703;48.978;8.982;2023-08-20T14:44:30;40.26;40.11
71047;SHT31;58703;48.978;8.982;2023-08-20T14:46:56;40.80;38.77
71047;SHT31;58703;48.978;8.982;2023-08-20T14:49:21;39.99;38.34
71047;SHT31;58703;48.978;8.982;2023-08-20T14:51:49;39.90;39.79
71047;SHT31;58703;48.978;8.982;2023-08-20T14:54:14;39.52;40.36
71047;SHT31;58703;48.978;8.982;2023-08-20T14:56:40;38.77;42.17
71047;SHT31;58703;48.978;8.982;2023-08-20T14:59:05;39.78;40.44
71047;SHT31;58703;48.978;8.982;2023-08-20T15:01:31;40.97;40.18
71047;SHT31;58703;48.978;8.982;2023-08-20T15:03:56;40.88;39.69
71047;SHT31;58703;48.978;8.982;2023-08-20T15:06:22;40.68;40.17
71047;SHT31;58703;48.978;8.982;2023-08-20T15:08:50;41.48;39.35
71047;SHT31;58703;48.978;8.982;2023-08-20T15:11:15;41.56;38.74
71047;SHT31;58703;48.978;8.982;2023-08-20T15:13:41;41.28;39.24
71047;SHT31;58703;48.978;8.982;2023-08-20T15:16:08;39.56;41.89
71047;SHT31;58703;48.978;8.982;2023-08-20T15:18:33;40.15;41.69
71047;SHT31;58703;48.978;8.982;2023-08-20T15:20:59;39.49;42.03
71047;SHT31;58703;48.978;8.982;2023-08-20T15:23:27;41.43;39.85
71047;SHT31;58703;48.978;8.982;2023-08-20T15:25:54;40.12;42.08
71047;SHT31;58703;48.978;8.982;2023-08-20T15:28:21;39.68;43.07
71047;SHT31;58703;48.978;8.982;2023-08-20T15:30:48;40.46;42.54
71047;SHT31;58703;48.978;8.982;2023-08-20T15:33:14;39.19;43.24
71047;SHT31;58703;48.978;8.982;2023-08-20T15:35:40;39.15;43.92
71047;SHT31;58703;48.978;8.982;2023-08-20T15:38:05;37.81;45.79
71047;SHT31;58703;48.978;8.982;2023-08-20T15:40:31;36.71;47.34